KCVS/CVS METAR and TAF weather

Enter ICAO airport designator
Station Type Date Time Source
KCVS METAR 2019/06/18 16:58 UTC NOAA

KCVS 181658Z AUTO 22014G19KT 10SM CLR 24/15 A3007 RMK AO2 SLP135 T02420146 $


Station Type Date Time Source
KCVS Decoded METAR 2019/06/18 16:58 UTC NOAA

Cannon Air Force Base / Clovis, NM, United States (KCVS) 34-23N 103-19W
Jun 18, 2019 - 12:58 PM EDT / 2019.06.18 1658 UTC
Wind: from the SW (220 degrees) at 16 MPH (14 KT) gusting to 22 MPH (19 KT):0
Visibility: 10 mile(s):0
Sky conditions: clear
Temperature: 75.6 F (24.2 C)
Dew Point: 58.3 F (14.6 C)
Relative Humidity: 55%
Pressure (altimeter): 30.07 in. Hg (1018 hPa)
ob: KCVS 181658Z AUTO 22014G19KT 10SM CLR 24/15 A3007 RMK AO2 SLP135 T02420146
cycle: 17

Station Type Date Time Source
KCVS TAF 2019/06/18 12:09 UTC NOAA

TAF TAF
AMD KCVS 181200Z 1812/1916 18010KT 9999 FEW150 QNH3003INS
BECMG 1815/1816 22012G18KT 9999 SCT150 QNH3003INS
BECMG 1818/1819 24012G20KT 9999 SCT150 QNH2993INS
BECMG 1820/1821 24012G20KT 9999 -SHRA SCT150 QNH2992INS
BECMG 1900/1901 VRB20G35KT 9999 NSW BKN060 QNH2991INS
BECMG 1903/1904 20012KT 9999 NSW SCT060 QNH2993INS TX33/1822Z TN15/1812Z

Example: see airport list